sensor_id;sensor_type;location;lat;lon;timestamp;pressure;altitude;pressure_sealevel;temperature;humidity
68859;BME280;55864;49.238;8.092;2022-08-19T00:00:57;99008.75;;;21.76;60.77
68859;BME280;55864;49.238;8.092;2022-08-19T00:02:57;98998.84;;;21.77;60.43
68859;BME280;55864;49.238;8.092;2022-08-19T00:04:58;99010.94;;;21.79;60.50
68859;BME280;55864;49.238;8.092;2022-08-19T00:07:00;99002.81;;;21.74;60.58
68859;BME280;55864;49.238;8.092;2022-08-19T00:09:02;99005.16;;;21.82;60.34
68859;BME280;55864;49.238;8.092;2022-08-19T00:11:03;99005.25;;;21.76;60.61
68859;BME280;55864;49.238;8.092;2022-08-19T00:13:04;99002.63;;;21.69;60.86
68859;BME280;55864;49.238;8.092;2022-08-19T00:15:07;99005.41;;;21.81;60.32
68859;BME280;55864;49.238;8.092;2022-08-19T00:17:08;99002.81;;;21.74;60.46
68859;BME280;55864;49.238;8.092;2022-08-19T00:19:09;99005.09;;;21.71;60.54
68859;BME280;55864;49.238;8.092;2022-08-19T00:21:10;99003.78;;;21.80;60.33
68859;BME280;55864;49.238;8.092;2022-08-19T00:23:12;99009.41;;;21.72;60.85
68859;BME280;55864;49.238;8.092;2022-08-19T00:25:13;99014.47;;;21.80;60.72
68859;BME280;55864;49.238;8.092;2022-08-19T00:27:14;99024.19;;;21.74;60.86
68859;BME280;55864;49.238;8.092;2022-08-19T00:29:17;99025.09;;;21.68;60.63
68859;BME280;55864;49.238;8.092;2022-08-19T00:31:18;99018.03;;;21.74;60.95
68859;BME280;55864;49.238;8.092;2022-08-19T00:33:19;99008.44;;;21.66;61.05
68859;BME280;55864;49.238;8.092;2022-08-19T00:35:19;99017.56;;;21.77;60.75
68859;BME280;55864;49.238;8.092;2022-08-19T00:37:21;99007.78;;;21.71;60.57
68859;BME280;55864;49.238;8.092;2022-08-19T00:39:24;98997.09;;;21.71;60.93
68859;BME280;55864;49.238;8.092;2022-08-19T00:41:26;98986.81;;;21.68;60.68
68859;BME280;55864;49.238;8.092;2022-08-19T00:43:27;98988.06;;;21.65;60.86
68859;BME280;55864;49.238;8.092;2022-08-19T00:45:28;98977.78;;;21.69;60.98
68859;BME280;55864;49.238;8.092;2022-08-19T00:47:29;98981.47;;;21.68;60.61
68859;BME280;55864;49.238;8.092;2022-08-19T00:49:32;98978.66;;;21.63;60.92
68859;BME280;55864;49.238;8.092;2022-08-19T00:51:34;98980.06;;;21.65;61.06
68859;BME280;55864;49.238;8.092;2022-08-19T00:53:34;98979.91;;;21.60;60.82
68859;BME280;55864;49.238;8.092;2022-08-19T00:55:37;98990.25;;;21.57;61.32
68859;BME280;55864;49.238;8.092;2022-08-19T00:57:42;98995.53;;;21.63;60.79
68859;BME280;55864;49.238;8.092;2022-08-19T00:59:46;98996.31;;;21.64;60.90
68859;BME280;55864;49.238;8.092;2022-08-19T01:01:47;98997.63;;;21.61;61.04
68859;BME280;55864;49.238;8.092;2022-08-19T01:03:48;98982.47;;;21.55;61.21
68859;BME280;55864;49.238;8.092;2022-08-19T01:05:50;98990.38;;;21.62;61.20
68859;BME280;55864;49.238;8.092;2022-08-19T01:07:51;98984.69;;;21.58;61.27
68859;BME280;55864;49.238;8.092;2022-08-19T01:09:53;98977.94;;;21.56;61.37
68859;BME280;55864;49.238;8.092;2022-08-19T01:11:56;98987.50;;;21.45;61.72
68859;BME280;55864;49.238;8.092;2022-08-19T01:13:57;98980.09;;;21.47;61.76
68859;BME280;55864;49.238;8.092;2022-08-19T01:16:03;98983.00;;;21.45;61.90
68859;BME280;55864;49.238;8.092;2022-08-19T01:18:08;98981.34;;;21.44;61.47
68859;BME280;55864;49.238;8.092;2022-08-19T01:20:17;98978.38;;;21.52;61.26
68859;BME280;55864;49.238;8.092;2022-08-19T01:22:28;98986.69;;;21.44;61.42
68859;BME280;55864;49.238;8.092;2022-08-19T01:24:30;98990.19;;;21.45;61.74
68859;BME280;55864;49.238;8.092;2022-08-19T01:26:34;98990.41;;;21.43;61.83
68859;BME280;55864;49.238;8.092;2022-08-19T01:28:38;98989.72;;;21.48;61.67
68859;BME280;55864;49.238;8.092;2022-08-19T01:30:39;98998.44;;;21.43;61.51
68859;BME280;55864;49.238;8.092;2022-08-19T01:32:39;98999.63;;;21.47;61.47
68859;BME280;55864;49.238;8.092;2022-08-19T01:34:40;99003.69;;;21.50;61.34
68859;BME280;55864;49.238;8.092;2022-08-19T01:36:43;99004.78;;;21.42;61.54
68859;BME280;55864;49.238;8.092;2022-08-19T01:38:45;99001.41;;;21.53;61.20
68859;BME280;55864;49.238;8.092;2022-08-19T01:40:45;98996.34;;;21.45;61.17
68859;BME280;55864;49.238;8.092;2022-08-19T01:42:46;98986.91;;;21.43;61.49
68859;BME280;55864;49.238;8.092;2022-08-19T01:44:47;98987.88;;;21.48;61.23
68859;BME280;55864;49.238;8.092;2022-08-19T01:49:05;98991.66;;;21.41;61.37
68859;BME280;55864;49.238;8.092;2022-08-19T01:51:06;98995.38;;;21.40;61.19
68859;BME280;55864;49.238;8.092;2022-08-19T01:53:10;98996.41;;;21.39;61.70
68859;BME280;55864;49.238;8.092;2022-08-19T01:55:15;99002.81;;;21.38;61.54
68859;BME280;55864;49.238;8.092;2022-08-19T01:57:16;98998.28;;;21.38;61.73
68859;BME280;55864;49.238;8.092;2022-08-19T01:59:19;99010.47;;;21.34;61.63
68859;BME280;55864;49.238;8.092;2022-08-19T02:01:20;99004.78;;;21.42;61.13
68859;BME280;55864;49.238;8.092;2022-08-19T02:03:21;99010.13;;;21.42;61.44
68859;BME280;55864;49.238;8.092;2022-08-19T02:05:22;98999.91;;;21.39;61.61
68859;BME280;55864;49.238;8.092;2022-08-19T02:07:22;99006.88;;;21.40;61.22
68859;BME280;55864;49.238;8.092;2022-08-19T02:09:23;98997.75;;;21.48;61.00
68859;BME280;55864;49.238;8.092;2022-08-19T02:11:28;99005.25;;;21.39;61.43
68859;BME280;55864;49.238;8.092;2022-08-19T02:13:30;99001.09;;;21.43;61.50
68859;BME280;55864;49.238;8.092;2022-08-19T02:15:32;98998.66;;;21.42;61.37
68859;BME280;55864;49.238;8.092;2022-08-19T02:17:35;99003.22;;;21.35;62.21
68859;BME280;55864;49.238;8.092;2022-08-19T02:19:37;99003.19;;;21.41;61.69
68859;BME280;55864;49.238;8.092;2022-08-19T02:21:39;98995.81;;;21.37;61.58
68859;BME280;55864;49.238;8.092;2022-08-19T02:23:41;98998.72;;;21.35;61.59
68859;BME280;55864;49.238;8.092;2022-08-19T02:25:45;99003.63;;;21.38;61.82
68859;BME280;55864;49.238;8.092;2022-08-19T02:27:52;99007.78;;;21.34;62.20
68859;BME280;55864;49.238;8.092;2022-08-19T02:29:55;99012.97;;;21.29;61.85
68859;BME280;55864;49.238;8.092;2022-08-19T02:31:58;99011.56;;;21.27;62.16
68859;BME280;55864;49.238;8.092;2022-08-19T02:33:59;99007.25;;;21.26;62.27
68859;BME280;55864;49.238;8.092;2022-08-19T02:36:04;99006.81;;;21.29;61.97
68859;BME280;55864;49.238;8.092;2022-08-19T02:38:07;99002.44;;;21.34;61.59
68859;BME280;55864;49.238;8.092;2022-08-19T02:40:12;99002.44;;;21.34;61.49
68859;BME280;55864;49.238;8.092;2022-08-19T02:42:14;98999.81;;;21.28;62.25
68859;BME280;55864;49.238;8.092;2022-08-19T02:44:17;99002.13;;;21.24;61.94
68859;BME280;55864;49.238;8.092;2022-08-19T02:46:25;98997.16;;;21.28;61.82
68859;BME280;55864;49.238;8.092;2022-08-19T02:48:27;99000.50;;;21.23;61.87
68859;BME280;55864;49.238;8.092;2022-08-19T02:50:29;99004.56;;;21.26;62.02
68859;BME280;55864;49.238;8.092;2022-08-19T02:52:32;99008.53;;;21.23;61.86
68859;BME280;55864;49.238;8.092;2022-08-19T02:54:43;99010.75;;;21.26;62.12
68859;BME280;55864;49.238;8.092;2022-08-19T02:56:46;99005.84;;;21.23;62.20
68859;BME280;55864;49.238;8.092;2022-08-19T02:58:51;99018.53;;;21.28;61.55
68859;BME280;55864;49.238;8.092;2022-08-19T03:00:56;99011.75;;;21.25;62.31
68859;BME280;55864;49.238;8.092;2022-08-19T03:02:58;99007.94;;;21.21;63.03
68859;BME280;55864;49.238;8.092;2022-08-19T03:05:02;99016.53;;;21.23;62.49
68859;BME280;55864;49.238;8.092;2022-08-19T03:07:05;99004.94;;;21.29;62.54
68859;BME280;55864;49.238;8.092;2022-08-19T03:09:08;99010.38;;;21.23;62.65
68859;BME280;55864;49.238;8.092;2022-08-19T03:11:13;99008.53;;;21.23;62.51
68859;BME280;55864;49.238;8.092;2022-08-19T03:13:17;99002.78;;;21.20;62.41
68859;BME280;55864;49.238;8.092;2022-08-19T03:15:22;99008.13;;;21.20;62.82
68859;BME280;55864;49.238;8.092;2022-08-19T03:17:27;99012.50;;;21.14;62.91
68859;BME280;55864;49.238;8.092;2022-08-19T03:20:05;99015.75;;;21.16;62.97
68859;BME280;55864;49.238;8.092;2022-08-19T03:22:07;99023.19;;;21.14;62.74
68859;BME280;55864;49.238;8.092;2022-08-19T03:24:09;99016.97;;;21.20;62.73
68859;BME280;55864;49.238;8.092;2022-08-19T03:26:16;99019.13;;;21.12;63.20
68859;BME280;55864;49.238;8.092;2022-08-19T03:28:18;99015.75;;;21.16;62.87
68859;BME280;55864;49.238;8.092;2022-08-19T03:30:19;99013.31;;;21.15;62.65
68859;BME280;55864;49.238;8.092;2022-08-19T03:32:25;99013.19;;;21.10;62.60
68859;BME280;55864;49.238;8.092;2022-08-19T03:34:28;99013.00;;;21.05;63.00
68859;BME280;55864;49.238;8.092;2022-08-19T03:36:31;99019.63;;;21.02;63.18
68859;BME280;55864;49.238;8.092;2022-08-19T03:38:36;99011.38;;;21.04;62.80
68859;BME280;55864;49.238;8.092;2022-08-19T03:40:37;99008.72;;;21.04;62.84
68859;BME280;55864;49.238;8.092;2022-08-19T03:42:49;99009.22;;;21.12;62.62
68859;BME280;55864;49.238;8.092;2022-08-19T03:44:52;99010.50;;;21.10;62.78
68859;BME280;55864;49.238;8.092;2022-08-19T03:46:54;99007.66;;;21.05;62.61
68859;BME280;55864;49.238;8.092;2022-08-19T03:49:03;99006.03;;;21.04;63.03
68859;BME280;55864;49.238;8.092;2022-08-19T03:51:20;98999.44;;;21.06;62.49
68859;BME280;55864;49.238;8.092;2022-08-19T03:53:23;99010.94;;;21.07;62.62
68859;BME280;55864;49.238;8.092;2022-08-19T03:55:26;99011.38;;;21.04;62.51
68859;BME280;55864;49.238;8.092;2022-08-19T03:57:31;99008.94;;;21.02;62.63
68859;BME280;55864;49.238;8.092;2022-08-19T03:59:36;99002.13;;;21.06;62.90
68859;BME280;55864;49.238;8.092;2022-08-19T04:01:41;99005.81;;;21.05;63.17
68859;BME280;55864;49.238;8.092;2022-08-19T04:03:44;98991.03;;;21.03;62.80
68859;BME280;55864;49.238;8.092;2022-08-19T04:05:51;98994.75;;;21.02;62.81
68859;BME280;55864;49.238;8.092;2022-08-19T04:07:56;98996.69;;;20.88;62.75
68859;BME280;55864;49.238;8.092;2022-08-19T04:10:03;99006.53;;;20.88;63.27
68859;BME280;55864;49.238;8.092;2022-08-19T04:12:09;99007.38;;;20.88;63.16
68859;BME280;55864;49.238;8.092;2022-08-19T04:14:15;99004.69;;;20.88;63.03
68859;BME280;55864;49.238;8.092;2022-08-19T04:16:28;99003.88;;;20.88;63.17
68859;BME280;55864;49.238;8.092;2022-08-19T04:18:29;98999.38;;;20.88;63.27
68859;BME280;55864;49.238;8.092;2022-08-19T04:20:40;98999.97;;;20.90;63.27
68859;BME280;55864;49.238;8.092;2022-08-19T04:22:49;99006.78;;;20.86;62.92
68859;BME280;55864;49.238;8.092;2022-08-19T04:24:51;99008.34;;;20.94;62.91
68859;BME280;55864;49.238;8.092;2022-08-19T04:26:54;99010.59;;;20.97;62.92
68859;BME280;55864;49.238;8.092;2022-08-19T04:29:05;99009.16;;;20.94;62.69
68859;BME280;55864;49.238;8.092;2022-08-19T04:31:13;99013.16;;;20.85;62.98
68859;BME280;55864;49.238;8.092;2022-08-19T04:33:19;99014.56;;;20.88;63.09
68859;BME280;55864;49.238;8.092;2022-08-19T04:35:30;99013.91;;;20.92;63.15
68859;BME280;55864;49.238;8.092;2022-08-19T04:37:36;99009.94;;;21.01;62.70
68859;BME280;55864;49.238;8.092;2022-08-19T04:39:48;99010.28;;;20.87;63.11
68859;BME280;55864;49.238;8.092;2022-08-19T04:41:54;99007.00;;;20.85;63.28
68859;BME280;55864;49.238;8.092;2022-08-19T04:43:59;99000.78;;;20.91;63.24
68859;BME280;55864;49.238;8.092;2022-08-19T04:46:05;99000.78;;;20.91;63.22
68859;BME280;55864;49.238;8.092;2022-08-19T04:48:05;99002.91;;;20.82;63.40
68859;BME280;55864;49.238;8.092;2022-08-19T04:50:07;99012.38;;;20.78;63.65
68859;BME280;55864;49.238;8.092;2022-08-19T04:52:07;99017.94;;;20.77;63.49
68859;BME280;55864;49.238;8.092;2022-08-19T04:54:08;99022.41;;;20.83;63.52
68859;BME280;55864;49.238;8.092;2022-08-19T04:56:12;99024.63;;;20.86;63.80
68859;BME280;55864;49.238;8.092;2022-08-19T04:58:13;99028.97;;;20.87;63.59
68859;BME280;55864;49.238;8.092;2022-08-19T05:00:13;99034.72;;;20.84;63.48
68859;BME280;55864;49.238;8.092;2022-08-19T05:02:14;99031.84;;;20.85;63.42
68859;BME280;55864;49.238;8.092;2022-08-19T05:04:16;99031.47;;;20.82;63.59
68859;BME280;55864;49.238;8.092;2022-08-19T05:06:21;99025.91;;;20.83;63.52
68859;BME280;55864;49.238;8.092;2022-08-19T05:08:21;99025.25;;;20.88;63.63
68859;BME280;55864;49.238;8.092;2022-08-19T05:10:22;99020.09;;;20.93;63.18
68859;BME280;55864;49.238;8.092;2022-08-19T05:12:24;99021.31;;;20.90;63.49
68859;BME280;55864;49.238;8.092;2022-08-19T05:14:25;99026.28;;;20.87;63.11
68859;BME280;55864;49.238;8.092;2022-08-19T05:16:26;99034.81;;;20.95;63.12
68859;BME280;55864;49.238;8.092;2022-08-19T05:18:27;99042.25;;;20.93;63.20
68859;BME280;55864;49.238;8.092;2022-08-19T05:20:27;99046.13;;;20.97;62.70
68859;BME280;55864;49.238;8.092;2022-08-19T05:22:28;99050.06;;;20.95;63.53
68859;BME280;55864;49.238;8.092;2022-08-19T05:24:29;99045.50;;;20.95;62.95
68859;BME280;55864;49.238;8.092;2022-08-19T05:26:29;99051.59;;;21.09;63.32
68859;BME280;55864;49.238;8.092;2022-08-19T05:28:31;99048.78;;;21.04;62.58
68859;BME280;55864;49.238;8.092;2022-08-19T05:30:32;99046.94;;;21.04;63.12
68859;BME280;55864;49.238;8.092;2022-08-19T05:32:32;99046.69;;;21.06;62.92
68859;BME280;55864;49.238;8.092;2022-08-19T05:34:33;99052.47;;;21.03;62.86
68859;BME280;55864;49.238;8.092;2022-08-19T05:36:45;99062.47;;;21.14;62.60
68859;BME280;55864;49.238;8.092;2022-08-19T05:38:54;99071.13;;;21.09;62.95
68859;BME280;55864;49.238;8.092;2022-08-19T05:40:55;99061.41;;;21.15;62.63
68859;BME280;55864;49.238;8.092;2022-08-19T05:42:56;99071.03;;;21.16;62.60
68859;BME280;55864;49.238;8.092;2022-08-19T05:44:58;99073.66;;;21.22;62.38
68859;BME280;55864;49.238;8.092;2022-08-19T05:46:59;99075.88;;;21.25;62.51
68859;BME280;55864;49.238;8.092;2022-08-19T05:49:00;99085.19;;;21.23;62.55
68859;BME280;55864;49.238;8.092;2022-08-19T05:51:04;99086.53;;;21.32;62.37
68859;BME280;55864;49.238;8.092;2022-08-19T05:53:05;99096.25;;;21.26;63.02
68859;BME280;55864;49.238;8.092;2022-08-19T05:55:06;99088.38;;;21.31;62.88
68859;BME280;55864;49.238;8.092;2022-08-19T05:57:07;99096.47;;;21.25;63.30
68859;BME280;55864;49.238;8.092;2022-08-19T05:59:09;99102.41;;;21.27;62.68
68859;BME280;55864;49.238;8.092;2022-08-19T06:01:15;99107.75;;;21.27;62.27
68859;BME280;55864;49.238;8.092;2022-08-19T06:03:16;99106.22;;;21.37;61.92
68859;BME280;55864;49.238;8.092;2022-08-19T06:05:16;99116.06;;;21.37;62.41
68859;BME280;55864;49.238;8.092;2022-08-19T06:07:17;99110.09;;;21.41;61.60
68859;BME280;55864;49.238;8.092;2022-08-19T06:09:18;99112.53;;;21.43;62.28
68859;BME280;55864;49.238;8.092;2022-08-19T06:11:21;99116.44;;;21.40;62.34
68859;BME280;55864;49.238;8.092;2022-08-19T06:13:24;99122.41;;;21.42;61.80
68859;BME280;55864;49.238;8.092;2022-08-19T06:15:26;99121.59;;;21.42;62.48
68859;BME280;55864;49.238;8.092;2022-08-19T06:17:31;99124.47;;;21.40;62.41
68859;BME280;55864;49.238;8.092;2022-08-19T06:19:32;99126.13;;;21.41;62.19
68859;BME280;55864;49.238;8.092;2022-08-19T06:21:33;99123.59;;;21.46;62.54
68859;BME280;55864;49.238;8.092;2022-08-19T06:23:35;99125.91;;;21.43;62.68
68859;BME280;55864;49.238;8.092;2022-08-19T06:25:36;99125.47;;;21.46;61.91
68859;BME280;55864;49.238;8.092;2022-08-19T06:27:39;99125.53;;;21.58;61.23
68859;BME280;55864;49.238;8.092;2022-08-19T06:29:40;99128.63;;;21.61;61.76
68859;BME280;55864;49.238;8.092;2022-08-19T06:31:42;99125.16;;;21.54;61.57
68859;BME280;55864;49.238;8.092;2022-08-19T06:36:05;99115.75;;;21.70;60.85
68859;BME280;55864;49.238;8.092;2022-08-19T06:38:06;99111.00;;;21.72;60.77
68859;BME280;55864;49.238;8.092;2022-08-19T06:40:07;99112.50;;;21.68;61.37
68859;BME280;55864;49.238;8.092;2022-08-19T06:42:09;99111.34;;;21.82;60.90
68859;BME280;55864;49.238;8.092;2022-08-19T06:44:11;99114.06;;;21.75;60.61
68859;BME280;55864;49.238;8.092;2022-08-19T06:46:13;99115.53;;;21.71;61.54
68859;BME280;55864;49.238;8.092;2022-08-19T06:48:14;99120.22;;;21.76;61.08
68859;BME280;55864;49.238;8.092;2022-08-19T06:50:16;99117.97;;;21.73;60.88
68859;BME280;55864;49.238;8.092;2022-08-19T06:52:17;99119.97;;;21.84;61.37
68859;BME280;55864;49.238;8.092;2022-08-19T06:54:18;99122.44;;;21.79;60.79
68859;BME280;55864;49.238;8.092;2022-08-19T06:56:21;99123.06;;;21.81;60.94
68859;BME280;55864;49.238;8.092;2022-08-19T06:58:22;99123.44;;;21.84;61.33
68859;BME280;55864;49.238;8.092;2022-08-19T07:00:22;99115.00;;;21.87;60.58
68859;BME280;55864;49.238;8.092;2022-08-19T07:02:23;99117.06;;;21.85;61.09
68859;BME280;55864;49.238;8.092;2022-08-19T07:04:25;99117.81;;;21.92;60.93
68859;BME280;55864;49.238;8.092;2022-08-19T07:06:28;99123.09;;;21.99;60.71
68859;BME280;55864;49.238;8.092;2022-08-19T07:08:28;99125.53;;;22.00;60.55
68859;BME280;55864;49.238;8.092;2022-08-19T07:10:29;99120.41;;;21.99;61.03
68859;BME280;55864;49.238;8.092;2022-08-19T07:12:31;99129.25;;;21.99;61.06
68859;BME280;55864;49.238;8.092;2022-08-19T07:14:33;99134.59;;;21.99;60.86
68859;BME280;55864;49.238;8.092;2022-08-19T07:16:34;99125.97;;;21.97;60.97
68859;BME280;55864;49.238;8.092;2022-08-19T07:18:35;99126.72;;;22.04;60.45
68859;BME280;55864;49.238;8.092;2022-08-19T07:20:36;99127.84;;;22.15;60.27
68859;BME280;55864;49.238;8.092;2022-08-19T07:22:38;99135.72;;;22.10;60.46
68859;BME280;55864;49.238;8.092;2022-08-19T07:24:38;99129.63;;;22.21;60.79
68859;BME280;55864;49.238;8.092;2022-08-19T07:26:42;99137.47;;;22.34;60.03
68859;BME280;55864;49.238;8.092;2022-08-19T07:28:43;99127.66;;;22.28;60.34
68859;BME280;55864;49.238;8.092;2022-08-19T07:30:43;99130.69;;;22.31;59.81
68859;BME280;55864;49.238;8.092;2022-08-19T07:32:44;99132.59;;;22.31;60.15
68859;BME280;55864;49.238;8.092;2022-08-19T07:34:46;99135.84;;;22.33;59.69
68859;BME280;55864;49.238;8.092;2022-08-19T07:36:47;99136.22;;;22.36;59.93
68859;BME280;55864;49.238;8.092;2022-08-19T07:38:50;99133.38;;;22.31;60.05
68859;BME280;55864;49.238;8.092;2022-08-19T07:40:51;99141.03;;;22.46;59.40
68859;BME280;55864;49.238;8.092;2022-08-19T07:42:51;99139.63;;;22.43;59.34
68859;BME280;55864;49.238;8.092;2022-08-19T07:44:52;99143.47;;;22.48;59.49
68859;BME280;55864;49.238;8.092;2022-08-19T07:46:55;99144.00;;;22.56;59.36
68859;BME280;55864;49.238;8.092;2022-08-19T07:48:56;99145.19;;;22.60;59.24
68859;BME280;55864;49.238;8.092;2022-08-19T07:50:58;99136.25;;;22.66;59.05
68859;BME280;55864;49.238;8.092;2022-08-19T07:52:59;99136.97;;;22.73;58.74
68859;BME280;55864;49.238;8.092;2022-08-19T07:55:01;99131.09;;;22.94;58.18
68859;BME280;55864;49.238;8.092;2022-08-19T07:57:03;99132.75;;;22.95;58.00
68859;BME280;55864;49.238;8.092;2022-08-19T07:59:03;99135.78;;;22.99;58.27
68859;BME280;55864;49.238;8.092;2022-08-19T08:01:06;99130.66;;;23.09;57.99
68859;BME280;55864;49.238;8.092;2022-08-19T08:03:07;99137.31;;;23.06;57.28
68859;BME280;55864;49.238;8.092;2022-08-19T08:05:08;99135.66;;;23.05;57.80
68859;BME280;55864;49.238;8.092;2022-08-19T08:07:08;99141.88;;;23.17;57.09
68859;BME280;55864;49.238;8.092;2022-08-19T08:09:09;99141.19;;;23.22;57.14
68859;BME280;55864;49.238;8.092;2022-08-19T08:11:12;99131.06;;;23.35;56.47
68859;BME280;55864;49.238;8.092;2022-08-19T08:13:14;99131.06;;;23.35;56.61
68859;BME280;55864;49.238;8.092;2022-08-19T08:15:15;99133.16;;;23.33;56.54
68859;BME280;55864;49.238;8.092;2022-08-19T08:17:18;99135.16;;;23.50;56.10
68859;BME280;55864;49.238;8.092;2022-08-19T08:19:19;99129.81;;;23.50;56.36
68859;BME280;55864;49.238;8.092;2022-08-19T08:21:20;99138.69;;;23.62;55.85
68859;BME280;55864;49.238;8.092;2022-08-19T08:23:20;99137.38;;;23.64;55.16
68859;BME280;55864;49.238;8.092;2022-08-19T08:25:22;99140.41;;;23.68;54.64
68859;BME280;55864;49.238;8.092;2022-08-19T08:27:24;99135.97;;;23.73;54.67
68859;BME280;55864;49.238;8.092;2022-08-19T08:29:26;99130.84;;;23.72;54.46
68859;BME280;55864;49.238;8.092;2022-08-19T08:31:27;99135.28;;;23.78;54.38
68859;BME280;55864;49.238;8.092;2022-08-19T08:33:28;99145.19;;;23.77;54.75
68859;BME280;55864;49.238;8.092;2022-08-19T08:35:29;99145.91;;;23.84;54.56
68859;BME280;55864;49.238;8.092;2022-08-19T08:37:29;99151.94;;;23.91;54.95
68859;BME280;55864;49.238;8.092;2022-08-19T08:39:30;99151.19;;;24.31;53.80
68859;BME280;55864;49.238;8.092;2022-08-19T08:41:36;99143.97;;;24.31;52.63
68859;BME280;55864;49.238;8.092;2022-08-19T08:43:45;99152.41;;;24.51;52.89
68859;BME280;55864;49.238;8.092;2022-08-19T08:45:50;99149.78;;;24.68;52.53
68859;BME280;55864;49.238;8.092;2022-08-19T08:47:55;99143.91;;;24.82;52.08
68859;BME280;55864;49.238;8.092;2022-08-19T08:50:01;99152.00;;;24.99;50.98
68859;BME280;55864;49.238;8.092;2022-08-19T08:52:05;99150.19;;;24.88;51.29
68859;BME280;55864;49.238;8.092;2022-08-19T08:54:08;99149.09;;;24.89;51.47
68859;BME280;55864;49.238;8.092;2022-08-19T08:56:11;99155.19;;;25.12;50.89
68859;BME280;55864;49.238;8.092;2022-08-19T08:58:14;99152.88;;;25.04;50.65
68859;BME280;55864;49.238;8.092;2022-08-19T09:00:21;99148.59;;;25.03;50.48
68859;BME280;55864;49.238;8.092;2022-08-19T09:02:22;99148.47;;;24.98;50.58
68859;BME280;55864;49.238;8.092;2022-08-19T09:04:23;99148.59;;;25.03;51.07
68859;BME280;55864;49.238;8.092;2022-08-19T09:06:29;99146.53;;;25.10;50.25
68859;BME280;55864;49.238;8.092;2022-08-19T09:08:40;99146.47;;;25.05;50.71
68859;BME280;55864;49.238;8.092;2022-08-19T09:11:15;99150.63;;;25.13;49.90
68859;BME280;55864;49.238;8.092;2022-08-19T09:13:25;99147.38;;;25.11;50.06
68859;BME280;55864;49.238;8.092;2022-08-19T09:15:34;99145.97;;;25.25;49.83
68859;BME280;55864;49.238;8.092;2022-08-19T09:17:37;99144.69;;;25.28;49.53
68859;BME280;55864;49.238;8.092;2022-08-19T09:19:52;99126.50;;;25.35;49.78
68859;BME280;55864;49.238;8.092;2022-08-19T09:21:53;99135.50;;;25.40;48.84
68859;BME280;55864;49.238;8.092;2022-08-19T09:23:54;99136.63;;;25.44;49.11
68859;BME280;55864;49.238;8.092;2022-08-19T09:25:54;99139.81;;;25.58;48.74
68859;BME280;55864;49.238;8.092;2022-08-19T09:27:55;99135.84;;;25.82;48.36
68859;BME280;55864;49.238;8.092;2022-08-19T09:29:56;99136.94;;;26.02;46.96
68859;BME280;55864;49.238;8.092;2022-08-19T09:31:58;99129.59;;;26.15;46.95
68859;BME280;55864;49.238;8.092;2022-08-19T09:33:59;99133.78;;;26.05;46.82
68859;BME280;55864;49.238;8.092;2022-08-19T09:36:05;99136.47;;;26.27;46.50
68859;BME280;55864;49.238;8.092;2022-08-19T09:38:06;99133.38;;;26.40;46.36
68859;BME280;55864;49.238;8.092;2022-08-19T09:40:07;99137.66;;;26.63;46.04
68859;BME280;55864;49.238;8.092;2022-08-19T09:42:08;99143.97;;;26.68;45.69
68859;BME280;55864;49.238;8.092;2022-08-19T09:44:09;99134.81;;;26.48;47.11
68859;BME280;55864;49.238;8.092;2022-08-19T09:46:10;99137.19;;;26.44;47.51
68859;BME280;55864;49.238;8.092;2022-08-19T09:48:11;99138.78;;;26.40;47.13
68859;BME280;55864;49.238;8.092;2022-08-19T09:50:12;99137.22;;;26.23;47.69
68859;BME280;55864;49.238;8.092;2022-08-19T09:52:13;99140.28;;;26.31;48.10
68859;BME280;55864;49.238;8.092;2022-08-19T09:54:14;99143.84;;;26.58;47.36
68859;BME280;55864;49.238;8.092;2022-08-19T09:56:14;99143.59;;;26.60;47.40
68859;BME280;55864;49.238;8.092;2022-08-19T09:58:15;99136.91;;;26.41;47.53
68859;BME280;55864;49.238;8.092;2022-08-19T10:00:16;99131.16;;;26.80;46.66
68859;BME280;55864;49.238;8.092;2022-08-19T10:02:16;99137.06;;;26.77;46.58
68859;BME280;55864;49.238;8.092;2022-08-19T10:04:19;99143.31;;;26.61;46.49
68859;BME280;55864;49.238;8.092;2022-08-19T10:06:21;99138.97;;;27.09;45.79
68859;BME280;55864;49.238;8.092;2022-08-19T10:08:25;99141.44;;;27.42;45.45
68859;BME280;55864;49.238;8.092;2022-08-19T10:10:25;99139.81;;;27.41;45.28
68859;BME280;55864;49.238;8.092;2022-08-19T10:12:26;99141.91;;;27.70;44.04
68859;BME280;55864;49.238;8.092;2022-08-19T10:14:27;99142.75;;;27.76;43.66
68859;BME280;55864;49.238;8.092;2022-08-19T10:16:28;99144.16;;;27.42;43.54
68859;BME280;55864;49.238;8.092;2022-08-19T10:18:28;99141.22;;;27.22;43.59
68859;BME280;55864;49.238;8.092;2022-08-19T10:20:30;99142.44;;;27.04;44.77
68859;BME280;55864;49.238;8.092;2022-08-19T10:22:31;99142.47;;;27.36;43.46
68859;BME280;55864;49.238;8.092;2022-08-19T10:24:31;99149.56;;;27.88;41.93
68859;BME280;55864;49.238;8.092;2022-08-19T10:26:34;99142.47;;;28.14;41.30
68859;BME280;55864;49.238;8.092;2022-08-19T10:28:36;99145.59;;;27.96;41.97
68859;BME280;55864;49.238;8.092;2022-08-19T10:30:37;99152.25;;;27.83;40.80
68859;BME280;55864;49.238;8.092;2022-08-19T10:32:38;99141.66;;;27.72;41.26
68859;BME280;55864;49.238;8.092;2022-08-19T10:34:39;99142.69;;;28.03;40.47
68859;BME280;55864;49.238;8.092;2022-08-19T10:36:41;99140.06;;;27.76;41.60
68859;BME280;55864;49.238;8.092;2022-08-19T10:38:42;99137.25;;;27.61;41.94
68859;BME280;55864;49.238;8.092;2022-08-19T10:40:42;99145.09;;;27.99;40.84
68859;BME280;55864;49.238;8.092;2022-08-19T10:42:43;99144.63;;;28.12;40.54
68859;BME280;55864;49.238;8.092;2022-08-19T10:44:43;99145.00;;;27.89;41.13
68859;BME280;55864;49.238;8.092;2022-08-19T10:46:44;99143.06;;;27.79;41.38
68859;BME280;55864;49.238;8.092;2022-08-19T10:48:45;99144.94;;;27.79;41.45
68859;BME280;55864;49.238;8.092;2022-08-19T10:50:45;99142.94;;;27.64;41.18
68859;BME280;55864;49.238;8.092;2022-08-19T10:52:49;99142.66;;;27.61;41.44
68859;BME280;55864;49.238;8.092;2022-08-19T10:54:49;99133.16;;;27.53;41.74